Terminal Aerodrome Forecast
Issued by NWS

Current Version | Previous Version | Graphics & Text | Print | Product List | Glossary On
Versions: 1 2 3 4 5 6 7 8 9 10 11 12 13 14 15 16 17 18 19 20 21 22 23 24 25 26 27 28 29 30 31 32 33 34 35 36 37 38 39 40 41 42
000
FTUS41 KRNK 250539
TAFLWB
TAF
KLWB 250539Z 2506/2606 00000KT P6SM OVC040
     FM250800 00000KT 4SM BR OVC012
     FM251000 00000KT 1/2SM FG OVC001
     FM251400 04004KT P6SM OVC025
     FM251600 04005KT P6SM SCT035=

USA.gov is the U.S. government's official web portal to all federal, state and local government web resources and services.